createdAt,value
2023-01-04T00:00:19.774Z,8.60
2023-01-04T00:03:06.348Z,8.50
2023-01-04T00:05:54.707Z,8.50
2023-01-04T00:08:41.445Z,8.60
2023-01-04T00:11:27.917Z,8.60
2023-01-04T00:14:17.279Z,8.60
2023-01-04T00:17:04.106Z,8.50
2023-01-04T00:19:50.538Z,8.60
2023-01-04T00:22:38.704Z,8.60
2023-01-04T00:25:25.539Z,8.50
2023-01-04T00:28:12.031Z,8.50
2023-01-04T00:31:02.637Z,8.50
2023-01-04T00:33:49.300Z,8.50
2023-01-04T00:36:36.218Z,8.50
2023-01-04T00:39:24.112Z,8.50
2023-01-04T00:42:10.743Z,8.50
2023-01-04T00:44:57.181Z,8.50
2023-01-04T00:47:43.648Z,8.50
2023-01-04T00:50:29.915Z,8.60
2023-01-04T00:53:17.642Z,8.60
2023-01-04T00:56:05.738Z,8.60
2023-01-04T00:58:55.812Z,8.60
2023-01-04T01:01:43.128Z,8.60
2023-01-04T01:04:29.753Z,8.60
2023-01-04T01:07:16.404Z,8.60
2023-01-04T01:10:02.676Z,8.60
2023-01-04T01:12:50.439Z,8.60
2023-01-04T01:15:37.245Z,8.60
2023-01-04T01:18:23.914Z,8.60
2023-01-04T01:21:12.446Z,8.60
2023-01-04T01:23:59.547Z,8.60
2023-01-04T01:26:46.711Z,8.60
2023-01-04T01:29:34.779Z,8.60
2023-01-04T01:32:21.321Z,8.60
2023-01-04T01:35:08.365Z,8.60
2023-01-04T01:37:54.662Z,8.60
2023-01-04T01:40:42.556Z,8.60
2023-01-04T01:43:48.545Z,8.60
2023-01-04T01:46:40.915Z,8.60
2023-01-04T01:49:32.013Z,8.60
2023-01-04T01:52:22.652Z,8.70
2023-01-04T01:55:11.430Z,8.70
2023-01-04T01:57:59.649Z,8.70
2023-01-04T02:00:46.116Z,8.70
2023-01-04T02:03:38.161Z,8.80
2023-01-04T02:06:30.549Z,8.80
2023-01-04T02:09:18.882Z,8.80
2023-01-04T02:12:05.646Z,8.80
2023-01-04T02:14:52.163Z,8.90
2023-01-04T02:17:47.381Z,8.90
2023-01-04T02:20:47.891Z,9.00
2023-01-04T02:24:08.288Z,9.00
2023-01-04T02:27:27.063Z,9.00
2023-01-04T02:30:48.248Z,9.10
2023-01-04T02:33:44.722Z,9.10
2023-01-04T02:36:37.703Z,9.10
2023-01-04T02:39:34.790Z,9.10
2023-01-04T02:42:46.573Z,9.20
2023-01-04T02:45:40.430Z,9.20
2023-01-04T02:48:44.382Z,9.20
2023-01-04T02:51:34.435Z,9.20
2023-01-04T02:54:27.228Z,9.20
2023-01-04T02:57:26.287Z,9.20
2023-01-04T03:00:59.979Z,9.20
2023-01-04T03:04:18.565Z,9.20
2023-01-04T03:07:14.074Z,9.20
2023-01-04T03:10:08.593Z,9.10
2023-01-04T03:13:00.212Z,9.20
2023-01-04T03:15:52.420Z,9.10
2023-01-04T03:18:45.617Z,9.10
2023-01-04T03:21:34.253Z,9.10
2023-01-04T03:24:41.832Z,9.00
2023-01-04T03:27:46.252Z,9.00
2023-01-04T03:31:02.330Z,9.00
2023-01-04T03:34:05.670Z,9.00
2023-01-04T03:37:08.959Z,9.00
2023-01-04T03:40:35.341Z,9.00
2023-01-04T03:43:42.328Z,9.00
2023-01-04T03:46:51.525Z,9.00
2023-01-04T03:49:42.001Z,9.00
2023-01-04T03:52:31.275Z,9.00
2023-01-04T03:55:19.845Z,9.00
2023-01-04T03:58:06.957Z,9.00
2023-01-04T04:00:53.816Z,9.00
2023-01-04T04:03:58.092Z,9.00
2023-01-04T04:07:01.957Z,9.00
2023-01-04T04:09:48.546Z,9.00
2023-01-04T04:12:36.359Z,9.00
2023-01-04T04:15:23.099Z,9.00
2023-01-04T04:18:09.645Z,9.10
2023-01-04T04:20:59.053Z,9.10
2023-01-04T04:23:45.729Z,9.10
2023-01-04T04:26:32.465Z,9.10
2023-01-04T04:29:20.109Z,9.10
2023-01-04T04:32:06.946Z,9.20
2023-01-04T04:34:53.534Z,9.20
2023-01-04T04:37:40.021Z,9.20
2023-01-04T04:40:43.776Z,9.20
2023-01-04T04:43:30.390Z,9.30
2023-01-04T04:46:18.402Z,9.30
2023-01-04T04:49:05.881Z,9.30
2023-01-04T04:51:52.522Z,9.30
2023-01-04T04:54:39.036Z,9.30
2023-01-04T04:57:25.358Z,9.40
2023-01-04T05:00:13.238Z,9.40
2023-01-04T05:03:02.243Z,9.40
2023-01-04T05:05:49.281Z,9.40
2023-01-04T05:08:35.950Z,9.40
2023-01-04T05:11:42.777Z,9.40
2023-01-04T05:14:28.410Z,9.40
2023-01-04T05:17:14.820Z,9.40
2023-01-04T05:20:02.462Z,9.30
2023-01-04T05:22:49.260Z,9.40
2023-01-04T05:25:36.006Z,9.40
2023-01-04T05:28:22.432Z,9.40
2023-01-04T05:31:07.973Z,9.40
2023-01-04T05:33:54.382Z,9.40
2023-01-04T05:36:42.002Z,9.40
2023-01-04T05:39:28.363Z,9.40
2023-01-04T05:42:26.594Z,9.50
2023-01-04T05:45:14.405Z,9.40
2023-01-04T05:48:01.093Z,9.40
2023-01-04T05:50:47.818Z,9.50
2023-01-04T05:53:35.526Z,9.50
2023-01-04T05:56:22.090Z,9.50
2023-01-04T05:59:08.423Z,9.50
2023-01-04T06:01:55.031Z,9.50
2023-01-04T06:04:41.842Z,9.60
2023-01-04T06:07:28.636Z,9.60
2023-01-04T06:10:17.001Z,9.70
2023-01-04T06:13:03.607Z,9.70
2023-01-04T06:15:50.034Z,9.70
2023-01-04T06:18:36.342Z,9.70
2023-01-04T06:21:22.858Z,9.80
2023-01-04T06:24:11.089Z,9.80
2023-01-04T06:26:59.396Z,9.80
2023-01-04T06:29:46.205Z,9.90
2023-01-04T06:32:32.618Z,9.90
2023-01-04T06:35:18.972Z,9.90
2023-01-04T06:38:05.368Z,10.00
2023-01-04T06:40:51.978Z,10.00
2023-01-04T06:43:39.650Z,10.10
2023-01-04T06:46:26.684Z,10.10
2023-01-04T06:49:14.440Z,10.10
2023-01-04T06:52:00.927Z,10.10
2023-01-04T06:54:47.336Z,10.20
2023-01-04T06:57:34.107Z,10.20
2023-01-04T07:00:22.316Z,10.30
2023-01-04T07:03:14.144Z,10.30
2023-01-04T07:06:06.088Z,10.30
2023-01-04T07:08:52.508Z,10.30
2023-01-04T07:11:38.836Z,10.30
2023-01-04T07:14:25.112Z,10.30
2023-01-04T07:17:12.808Z,10.40
2023-01-04T07:19:59.333Z,10.40
2023-01-04T07:22:45.710Z,10.40
2023-01-04T07:25:32.287Z,10.40
2023-01-04T07:28:38.980Z,10.40
2023-01-04T07:31:25.728Z,10.50
2023-01-04T07:34:14.173Z,10.50
2023-01-04T07:37:00.345Z,10.50
2023-01-04T07:39:48.562Z,10.50
2023-01-04T07:42:35.370Z,10.60
2023-01-04T07:45:21.645Z,10.60
2023-01-04T07:48:08.201Z,10.60
2023-01-04T07:50:56.090Z,10.60
2023-01-04T07:53:42.297Z,10.60
2023-01-04T07:56:28.600Z,10.70
2023-01-04T07:59:19.005Z,10.70
2023-01-04T08:02:05.534Z,10.70
2023-01-04T08:04:52.324Z,10.70
2023-01-04T08:07:40.536Z,10.70
2023-01-04T08:10:26.985Z,10.70
2023-01-04T08:13:13.899Z,10.70
2023-01-04T08:16:00.605Z,10.70
2023-01-04T08:18:47.434Z,10.70
2023-01-04T08:21:35.869Z,10.70
2023-01-04T08:24:23.544Z,10.70
2023-01-04T08:27:11.173Z,10.60
2023-01-04T08:29:57.780Z,10.60
2023-01-04T08:32:44.123Z,10.60
2023-01-04T08:35:30.586Z,10.50
2023-01-04T08:38:57.560Z,10.60
2023-01-04T08:41:56.011Z,10.60
2023-01-04T08:44:34.530Z,10.60
2023-01-04T08:47:21.154Z,10.60
2023-01-04T08:50:10.828Z,10.60
2023-01-04T08:52:57.788Z,10.50
2023-01-04T08:55:51.116Z,10.60
2023-01-04T08:58:39.718Z,10.60
2023-01-04T09:01:26.402Z,10.60
2023-01-04T09:04:13.337Z,10.70
2023-01-04T09:07:00.071Z,10.70
2023-01-04T09:09:46.392Z,10.60
2023-01-04T09:12:32.788Z,10.70
2023-01-04T09:15:21.173Z,10.70
2023-01-04T09:21:17.241Z,10.80
2023-01-04T09:24:03.921Z,10.80
2023-01-04T09:26:50.832Z,10.80
2023-01-04T09:29:37.494Z,10.90
2023-01-04T09:32:25.291Z,10.80
2023-01-04T09:35:12.330Z,10.90
2023-01-04T09:37:58.910Z,10.90
2023-01-04T09:40:54.789Z,10.90
2023-01-04T09:43:47.905Z,10.90
2023-01-04T09:46:40.110Z,10.90
2023-01-04T09:49:31.756Z,10.90
2023-01-04T09:52:23.452Z,10.90
2023-01-04T09:55:39.254Z,11.00
2023-01-04T09:58:27.977Z,11.00
2023-01-04T10:01:18.425Z,11.00
2023-01-04T10:04:14.236Z,11.00
2023-01-04T10:07:05.128Z,11.00
2023-01-04T10:09:51.865Z,10.90
2023-01-04T10:12:49.254Z,11.00
2023-01-04T10:15:40.686Z,11.00
2023-01-04T10:19:52.158Z,11.00
2023-01-04T10:21:48.576Z,11.00
2023-01-04T10:24:46.969Z,11.00
2023-01-04T10:27:42.671Z,11.10
2023-01-04T10:30:36.276Z,11.10
2023-01-04T10:33:29.251Z,11.10
2023-01-04T10:36:20.276Z,11.00
2023-01-04T10:39:13.486Z,11.00
2023-01-04T10:42:08.154Z,11.10
2023-01-04T10:45:09.129Z,11.00
2023-01-04T10:48:03.572Z,11.00
2023-01-04T10:50:56.418Z,11.00
2023-01-04T10:53:48.565Z,11.10
2023-01-04T10:56:38.611Z,11.00
2023-01-04T10:59:35.015Z,11.00
2023-01-04T11:02:27.539Z,11.00
2023-01-04T11:05:21.073Z,11.00
2023-01-04T11:08:12.763Z,11.00
2023-01-04T11:11:05.203Z,11.00
2023-01-04T11:13:51.805Z,11.10
2023-01-04T11:16:41.725Z,11.00
2023-01-04T11:19:29.577Z,11.00
2023-01-04T11:22:21.125Z,11.00
2023-01-04T11:28:24.902Z,11.10
2023-01-04T11:31:22.271Z,11.10
2023-01-04T11:34:10.303Z,11.10
2023-01-04T11:36:56.954Z,11.20
2023-01-04T11:39:43.434Z,11.10
2023-01-04T11:42:29.891Z,11.20
2023-01-04T11:45:22.052Z,11.20
2023-01-04T11:48:16.313Z,11.20
2023-01-04T11:51:05.272Z,11.10
2023-01-04T11:53:59.463Z,11.20
2023-01-04T11:57:01.616Z,11.20
2023-01-04T12:00:09.561Z,11.20
2023-01-04T12:03:12.986Z,11.30
2023-01-04T12:06:00.147Z,11.30
2023-01-04T12:08:49.360Z,11.30
2023-01-04T12:11:38.585Z,11.40
2023-01-04T12:14:26.888Z,11.30
2023-01-04T12:17:17.555Z,11.30
2023-01-04T12:20:16.502Z,11.40
2023-01-04T12:23:05.607Z,11.40
2023-01-04T12:25:54.759Z,11.40
2023-01-04T12:28:44.206Z,11.50
2023-01-04T12:31:33.715Z,11.50
2023-01-04T12:34:39.976Z,11.50
2023-01-04T12:37:49.586Z,11.50
2023-01-04T12:40:56.632Z,11.60
2023-01-04T12:43:47.066Z,11.60
2023-01-04T12:46:58.594Z,11.60
2023-01-04T12:49:51.829Z,11.60
2023-01-04T12:53:10.169Z,11.70
2023-01-04T12:55:57.176Z,11.70
2023-01-04T12:59:26.264Z,11.70
2023-01-04T13:02:23.011Z,11.70
2023-01-04T13:05:55.481Z,11.80
2023-01-04T13:08:42.419Z,11.70
2023-01-04T13:12:02.176Z,11.80
2023-01-04T13:14:51.233Z,11.90
2023-01-04T13:17:40.654Z,12.00
2023-01-04T13:20:29.015Z,11.80
2023-01-04T13:23:15.604Z,11.80
2023-01-04T13:26:40.340Z,11.80
2023-01-04T13:29:30.544Z,11.90
2023-01-04T13:32:23.825Z,11.90
2023-01-04T13:35:14.867Z,11.80
2023-01-04T13:38:02.394Z,11.90
2023-01-04T13:40:49.786Z,11.90
2023-01-04T13:43:54.235Z,11.90
2023-01-04T13:46:44.677Z,11.90
2023-01-04T13:49:31.859Z,12.00
2023-01-04T13:52:50.591Z,12.00
2023-01-04T13:55:32.057Z,12.00
2023-01-04T13:58:20.447Z,12.10
2023-01-04T14:01:09.119Z,12.10
2023-01-04T14:03:59.878Z,12.10
2023-01-04T14:06:49.523Z,12.20
2023-01-04T14:09:44.497Z,12.10
2023-01-04T14:12:31.025Z,12.10
2023-01-04T14:15:22.260Z,12.10
2023-01-04T14:18:27.739Z,12.10
2023-01-04T14:21:19.960Z,12.20
2023-01-04T14:27:42.564Z,12.20
2023-01-04T14:30:29.508Z,12.30
2023-01-04T14:33:18.565Z,12.30
2023-01-04T14:36:12.078Z,12.40
2023-01-04T14:39:18.726Z,12.40
2023-01-04T14:42:06.179Z,12.40
2023-01-04T14:44:53.011Z,12.40
2023-01-04T14:47:39.373Z,12.40
2023-01-04T14:50:25.843Z,12.40
2023-01-04T14:53:17.580Z,12.50
2023-01-04T14:56:05.692Z,12.50
2023-01-04T14:58:52.162Z,12.50
2023-01-04T15:01:39.917Z,12.50
2023-01-04T15:04:26.566Z,12.50
2023-01-04T15:07:33.743Z,12.50
2023-01-04T15:10:23.935Z,12.50
2023-01-04T15:13:11.798Z,12.60
2023-01-04T15:15:58.557Z,12.60
2023-01-04T15:18:45.811Z,12.60
2023-01-04T15:21:36.928Z,12.60
2023-01-04T15:24:27.163Z,12.60
2023-01-04T15:27:13.691Z,12.60
2023-01-04T15:30:01.400Z,12.60
2023-01-04T15:32:48.259Z,12.70
2023-01-04T15:35:35.418Z,12.60
2023-01-04T15:38:22.019Z,12.60
2023-01-04T15:41:32.122Z,12.60
2023-01-04T15:44:18.013Z,12.70
2023-01-04T15:47:05.924Z,12.60
2023-01-04T15:49:52.466Z,12.70
2023-01-04T15:52:38.950Z,12.70
2023-01-04T15:55:26.796Z,12.70
2023-01-04T15:58:16.465Z,12.70
2023-01-04T16:01:09.144Z,12.70
2023-01-04T16:03:57.241Z,12.70
2023-01-04T16:06:43.761Z,12.60
2023-01-04T16:09:30.310Z,12.60
2023-01-04T16:12:34.366Z,12.60
2023-01-04T16:15:22.391Z,12.60
2023-01-04T16:18:09.162Z,12.60
2023-01-04T16:20:57.520Z,12.60
2023-01-04T16:23:44.052Z,12.60
2023-01-04T16:26:30.494Z,12.60
2023-01-04T16:29:17.212Z,12.60
2023-01-04T16:32:05.444Z,12.70
2023-01-04T16:34:52.226Z,12.70
2023-01-04T16:37:40.332Z,12.70
2023-01-04T16:40:26.636Z,12.60
2023-01-04T16:43:13.028Z,12.60
2023-01-04T16:46:20.184Z,12.70
2023-01-04T16:49:09.634Z,12.70
2023-01-04T16:51:55.990Z,12.70
2023-01-04T16:54:43.735Z,12.70
2023-01-04T16:57:30.257Z,12.70
2023-01-04T17:00:19.221Z,12.70
2023-01-04T17:03:05.764Z,12.70
2023-01-04T17:05:52.399Z,12.70
2023-01-04T17:08:39.031Z,12.70
2023-01-04T17:14:35.608Z,12.60
2023-01-04T17:17:22.120Z,12.50
2023-01-04T17:20:09.666Z,12.50
2023-01-04T17:22:56.355Z,12.50
2023-01-04T17:25:42.835Z,12.50
2023-01-04T17:28:31.334Z,12.50
2023-01-04T17:31:20.592Z,12.60
2023-01-04T17:34:08.903Z,12.60
2023-01-04T17:36:55.820Z,12.60
2023-01-04T17:39:42.331Z,12.60
2023-01-04T17:42:28.658Z,12.60
2023-01-04T17:45:16.575Z,12.60
2023-01-04T17:48:02.967Z,12.60
2023-01-04T17:50:49.342Z,12.70
2023-01-04T17:53:36.289Z,12.70
2023-01-04T17:56:23.551Z,12.60
2023-01-04T17:59:12.555Z,12.60
2023-01-04T18:02:00.488Z,12.60
2023-01-04T18:04:47.276Z,12.60
2023-01-04T18:07:35.185Z,12.60
2023-01-04T18:10:40.851Z,12.60
2023-01-04T18:13:28.046Z,12.60
2023-01-04T18:16:24.318Z,12.60
2023-01-04T18:19:12.971Z,12.60
2023-01-04T18:21:59.958Z,12.50
2023-01-04T18:24:46.317Z,12.60
2023-01-04T18:27:32.751Z,12.50
2023-01-04T18:30:19.211Z,12.50
2023-01-04T18:33:06.227Z,12.50
2023-01-04T18:35:53.928Z,12.50
2023-01-04T18:38:40.774Z,12.50
2023-01-04T18:41:27.969Z,12.50
2023-01-04T18:47:22.857Z,12.60
2023-01-04T18:50:10.519Z,12.60
2023-01-04T18:52:58.302Z,12.60
2023-01-04T18:55:45.090Z,12.60
2023-01-04T18:58:31.509Z,12.50
2023-01-04T19:01:19.889Z,12.60
2023-01-04T19:04:06.936Z,12.60
2023-01-04T19:06:53.178Z,12.60
2023-01-04T19:09:42.569Z,12.60
2023-01-04T19:12:29.429Z,12.60
2023-01-04T19:15:16.099Z,12.60
2023-01-04T19:18:02.718Z,12.60
2023-01-04T19:20:49.147Z,12.60
2023-01-04T19:23:37.277Z,12.60
2023-01-04T19:26:26.014Z,12.60
2023-01-04T19:29:12.640Z,12.60
2023-01-04T19:31:59.098Z,12.60
2023-01-04T19:34:45.747Z,12.50
2023-01-04T19:37:32.384Z,12.40
2023-01-04T19:40:19.109Z,12.40
2023-01-04T19:43:07.499Z,12.40
2023-01-04T19:45:54.031Z,12.40
2023-01-04T19:48:41.412Z,12.40
2023-01-04T19:51:28.594Z,12.40
2023-01-04T19:54:21.533Z,12.40
2023-01-04T19:57:11.448Z,12.50
2023-01-04T19:59:59.522Z,12.40
2023-01-04T20:02:46.030Z,12.40
2023-01-04T20:05:34.992Z,12.40
2023-01-04T20:08:21.679Z,12.40
2023-01-04T20:11:08.576Z,12.40
2023-01-04T20:13:54.982Z,12.50
2023-01-04T20:16:42.793Z,12.50
2023-01-04T20:19:29.720Z,12.40
2023-01-04T20:22:16.484Z,12.40
2023-01-04T20:25:03.067Z,12.50
2023-01-04T20:27:49.805Z,12.50
2023-01-04T20:30:36.470Z,12.50
2023-01-04T20:33:24.660Z,12.50
2023-01-04T20:36:14.514Z,12.60
2023-01-04T20:39:03.429Z,12.50
2023-01-04T20:42:03.815Z,12.50
2023-01-04T20:44:50.421Z,12.50
2023-01-04T20:47:36.997Z,12.50
2023-01-04T20:50:24.881Z,12.40
2023-01-04T20:53:13.435Z,12.40
2023-01-04T20:56:06.219Z,12.40
2023-01-04T20:58:53.376Z,12.40
2023-01-04T21:01:39.770Z,12.50
2023-01-04T21:04:27.710Z,12.40
2023-01-04T21:07:15.928Z,12.40
2023-01-04T21:10:02.538Z,12.40
2023-01-04T21:12:49.132Z,12.40
2023-01-04T21:15:37.710Z,12.40
2023-01-04T21:18:25.344Z,12.40
2023-01-04T21:21:15.848Z,12.40
2023-01-04T21:24:03.545Z,12.30
2023-01-04T21:26:50.310Z,12.40
2023-01-04T21:29:36.818Z,12.40
2023-01-04T21:32:23.296Z,12.40
2023-01-04T21:35:10.365Z,12.40
2023-01-04T21:37:56.969Z,12.40
2023-01-04T21:40:44.820Z,12.40
2023-01-04T21:43:31.477Z,12.30
2023-01-04T21:46:18.314Z,12.30
2023-01-04T21:49:06.316Z,12.10
2023-01-04T21:51:52.940Z,11.90
2023-01-04T21:54:39.994Z,11.80
2023-01-04T21:57:27.667Z,11.70
2023-01-04T22:00:14.697Z,11.40
2023-01-04T22:03:01.190Z,11.30
2023-01-04T22:05:47.645Z,11.20
2023-01-04T22:08:34.400Z,11.30
2023-01-04T22:11:21.274Z,11.20
2023-01-04T22:14:09.411Z,11.30
2023-01-04T22:16:56.097Z,11.30
2023-01-04T22:19:42.447Z,11.40
2023-01-04T22:22:30.850Z,11.30
2023-01-04T22:25:17.367Z,11.30
2023-01-04T22:28:04.117Z,11.30
2023-01-04T22:30:52.205Z,11.20
2023-01-04T22:33:39.842Z,11.20
2023-01-04T22:36:26.238Z,11.10
2023-01-04T22:39:12.828Z,11.10
2023-01-04T22:41:59.174Z,11.00
2023-01-04T22:44:45.603Z,11.10
2023-01-04T22:47:35.918Z,11.10
2023-01-04T22:50:22.737Z,11.10
2023-01-04T22:53:09.101Z,11.10
2023-01-04T22:59:02.192Z,10.80
2023-01-04T23:01:49.098Z,10.90
2023-01-04T23:04:37.315Z,10.80
2023-01-04T23:07:23.806Z,10.90
2023-01-04T23:10:10.545Z,10.90
2023-01-04T23:12:57.032Z,10.90
2023-01-04T23:15:43.365Z,11.00
2023-01-04T23:18:32.888Z,10.90
2023-01-04T23:21:20.656Z,11.00
2023-01-04T23:24:08.073Z,11.00
2023-01-04T23:26:54.430Z,11.00
2023-01-04T23:29:41.028Z,11.10
2023-01-04T23:32:27.382Z,11.00
2023-01-04T23:35:13.830Z,11.10
2023-01-04T23:38:01.565Z,11.10
2023-01-04T23:40:48.724Z,11.10
2023-01-04T23:43:36.954Z,11.10
2023-01-04T23:46:23.410Z,11.20
2023-01-04T23:49:10.119Z,11.30
2023-01-04T23:51:57.317Z,11.30
2023-01-04T23:54:45.154Z,11.20
2023-01-04T23:57:31.639Z,11.20
